Time;durP1;ratioP1;P1;durP2;ratioP2;P2;SDS_P1;SDS_P2;PMS_P1;PMS_P2;Temp;Humidity;BMP_temperature;BMP_pressure;BME280_temperature;BME280_humidity;BME280_pressure;Samples;Min_cycle;Max_cycle;Signal;HPM_P1;HPM_P2
2022/05/06 00:01:40;;;;;;;5.70;2.03;;;;;;;;;;4977514;28;20531;-82
2022/05/06 00:04:06;;;;;;;2.78;1.80;;;;;;;;;;4977607;28;20078;-81
2022/05/06 00:06:33;;;;;;;3.70;1.10;;;;;;;;;;4977620;28;20542;-82
2022/05/06 00:08:59;;;;;;;4.53;2.15;;;;;;;;;;4990322;28;20026;-82
2022/05/06 00:11:25;;;;;;;2.28;1.77;;;;;;;;;;4993318;28;20061;-82
2022/05/06 00:13:54;;;;;;;3.25;1.48;;;10.40;97.00;;;;;;4984383;28;20431;-82
2022/05/06 00:16:20;;;;;;;2.35;1.50;;;;;;;;;;4982329;28;20030;-82
2022/05/06 00:18:46;;;;;;;5.05;1.52;;;;;;;;;;4977461;28;20108;-82
2022/05/06 00:21:13;;;;;;;2.15;1.38;;;;;;;;;;4974655;28;20089;-81
2022/05/06 00:23:39;;;;;;;2.55;1.63;;;;;;;;;;4971798;28;20039;-82
2022/05/06 00:26:05;;;;;;;2.42;1.50;;;;;;;;;;4991983;28;20487;-81
2022/05/06 00:28:31;;;;;;;2.45;1.55;;;;;;;;;;4976971;28;20452;-82
2022/05/06 00:31:01;;;;;;;3.35;1.40;;;;;;;;;;4977301;28;20023;-81
2022/05/06 00:33:27;;;;;;;1.92;1.25;;;;;;;;;;4976441;28;20035;-82
2022/05/06 00:35:54;;;;;;;3.00;1.25;;;;;;;;;;4972663;28;20496;-82
2022/05/06 00:38:20;;;;;;;5.30;2.47;;;;;;;;;;4975375;28;20598;-82
2022/05/06 00:40:46;;;;;;;2.33;1.77;;;;;;;;;;4985671;28;20031;-83
2022/05/06 00:43:12;;;;;;;0.98;0.90;;;;;;;;;;4982965;28;20562;-81
2022/05/06 00:45:52;;;;;;;2.35;1.33;;;;;;;;;;4977225;28;20026;-81
2022/05/06 00:48:20;;;;;;;1.42;1.23;;;10.30;96.40;;;;;;4988759;28;20026;-83
2022/05/06 00:50:46;;;;;;;2.35;1.63;;;;;;;;;;4972467;28;20037;-81
2022/05/06 00:53:13;;;;;;;1.17;0.93;;;10.60;95.60;;;;;;4976421;28;20030;-81
2022/05/06 00:55:39;;;;;;;3.38;1.35;;;;;;;;;;4977123;28;20034;-83
2022/05/06 00:58:06;;;;;;;1.70;1.20;;;;;;;;;;4977017;28;20034;-81
2022/05/06 01:00:32;;;;;;;1.58;1.10;;;;;;;;;;4988385;28;20488;-81
2022/05/06 01:02:58;;;;;;;1.88;1.27;;;;;;;;;;4972621;28;20776;-81
2022/05/06 01:05:24;;;;;;;6.47;1.23;;;;;;;;;;4974743;28;20031;-82
2022/05/06 01:07:51;;;;;;;4.50;1.40;;;;;;;;;;4977078;28;20558;-81
2022/05/06 01:10:21;;;;;;;2.53;1.65;;;;;;;;;;4980643;28;20023;-81
2022/05/06 01:12:48;;;;;;;3.05;1.48;;;;;;;;;;4976371;28;20041;-82
2022/05/06 01:15:17;;;;;;;3.90;2.13;;;;;;;;;;4974291;28;20030;-82
2022/05/06 01:17:43;;;;;;;2.50;1.13;;;;;;;;;;4972640;28;20559;-82
2022/05/06 01:20:11;;;;;;;1.65;1.08;;;;;;;;;;4991368;28;20081;-81
2022/05/06 01:22:38;;;;;;;2.35;1.25;;;;;;;;;;4976740;28;20046;-82
2022/05/06 01:25:04;;;;;;;1.17;1.05;;;;;;;;;;4976806;28;20027;-81
2022/05/06 01:27:33;;;;;;;2.25;1.38;;;;;;;;;;4976990;28;20038;-81
2022/05/06 01:30:00;;;;;;;1.45;1.25;;;;;;;;;;4971129;28;20030;-81
2022/05/06 01:32:27;;;;;;;1.70;1.27;;;;;;;;;;5000000;28;20606;-81
2022/05/06 01:34:55;;;;;;;1.20;1.10;;;;;;;;;;4987702;28;20045;-82
2022/05/06 01:37:22;;;;;;;5.53;1.10;;;9.60;95.80;;;;;;4985379;28;20034;-82
2022/05/06 01:39:52;;;;;;;1.20;0.98;;;;;;;;;;4982677;28;20105;-82
2022/05/06 01:42:21;;;;;;;1.67;1.45;;;;;;;;;;4991259;28;20057;-81
2022/05/06 01:44:50;;;;;;;2.17;1.55;;;9.30;96.80;;;;;;4974309;28;20089;-82
2022/05/06 01:47:21;;;;;;;2.78;1.55;;;;;;;;;;4979393;28;20023;-81
2022/05/06 01:49:48;;;;;;;3.45;1.20;;;;;;;;;;4985938;28;20034;-82
2022/05/06 01:52:16;;;;;;;4.75;1.75;;;;;;;;;;4984538;28;20534;-82
2022/05/06 01:54:42;;;;;;;1.67;1.23;;;;;;;;;;4977308;28;20524;-81
2022/05/06 01:57:08;;;;;;;1.88;1.15;;;;;;;;;;4990670;28;20046;-81
2022/05/06 01:59:34;;;;;;;1.20;1.10;;;;;;;;;;4988397;28;20030;-81
2022/05/06 02:02:00;;;;;;;1.30;1.17;;;;;;;;;;4987526;28;20645;-82
2022/05/06 02:07:11;;;;;;;1.90;1.20;;;;;;;;;;4986760;28;20054;-81
2022/05/06 02:09:37;;;;;;;2.65;2.08;;;;;;;;;;4980100;28;20026;-81
2022/05/06 02:12:03;;;;;;;3.15;1.20;;;;;;;;;;4976399;28;20042;-82
2022/05/06 02:14:30;;;;;;;2.47;1.45;;;;;;;;;;5005676;28;20053;-80
2022/05/06 02:16:56;;;;;;;2.15;1.50;;;;;;;;;;4980751;28;20569;-82
2022/05/06 02:19:22;;;;;;;3.28;1.52;;;;;;;;;;4995007;28;20023;-82
2022/05/06 02:21:48;;;;;;;1.30;1.05;;;;;;;;;;4980544;28;20042;-82
2022/05/06 02:24:14;;;;;;;3.97;2.25;;;;;;;;;;4978002;28;20021;-83
2022/05/06 02:26:40;;;;;;;1.55;1.30;;;;;;;;;;4975343;28;20035;-82
2022/05/06 02:29:06;;;;;;;2.70;1.52;;;;;;;;;;4980075;28;20117;-82
2022/05/06 02:34:18;;;;;;;2.67;1.30;;;;;;;;;;4979947;28;20034;-82
2022/05/06 02:36:45;;;;;;;1.53;1.20;;;9.70;95.40;;;;;;4980144;28;20035;-82
2022/05/06 02:39:11;;;;;;;4.60;1.88;;;;;;;;;;4977201;28;20061;-81
2022/05/06 02:41:37;;;;;;;1.40;1.17;;;;;;;;;;4991426;28;20077;-80
2022/05/06 02:44:04;;;;;;;1.85;1.27;;;;;;;;;;4980298;28;20031;-82
2022/05/06 02:46:30;;;;;;;1.88;1.05;;;;;;;;;;4978855;28;20023;-82
2022/05/06 02:48:57;;;;;;;2.83;1.42;;;;;;;;;;4994376;28;20027;-82
2022/05/06 02:51:23;;;;;;;2.63;1.60;;;;;;;;;;4978145;28;20053;-82
2022/05/06 02:53:49;;;;;;;2.50;1.90;;;;;;;;;;4975427;28;20114;-82
2022/05/06 02:56:15;;;;;;;1.95;1.42;;;;;;;;;;4978980;28;20115;-81
2022/05/06 02:58:41;;;;;;;4.55;2.17;;;;;;;;;;4979936;28;20117;-82
2022/05/06 03:01:07;;;;;;;3.88;1.63;;;;;;;;;;4980204;28;20622;-82
2022/05/06 03:03:33;;;;;;;2.25;1.63;;;;;;;;;;4979857;28;20040;-82
2022/05/06 03:06:00;;;;;;;2.17;1.40;;;;;;;;;;4973655;28;20452;-82
2022/05/06 03:08:26;;;;;;;2.17;1.50;;;;;;;;;;4976871;28;20034;-82
2022/05/06 03:10:52;;;;;;;1.95;1.35;;;;;;;;;;4979284;28;20027;-82
2022/05/06 03:13:18;;;;;;;2.28;1.58;;;;;;;;;;4979314;28;20029;-81
2022/05/06 03:15:45;;;;;;;6.47;1.70;;;;;;;;;;4979076;28;20109;-81
2022/05/06 03:18:11;;;;;;;3.30;2.35;;;;;;;;;;4976257;28;20073;-82
2022/05/06 03:20:38;;;;;;;2.20;1.40;;;;;;;;;;4974928;28;20500;-82
2022/05/06 03:23:04;;;;;;;2.80;1.38;;;;;;;;;;4978212;28;20046;-81
2022/05/06 03:25:30;;;;;;;3.60;1.48;;;;;;;;;;4979507;28;20085;-83
2022/05/06 03:27:59;;;;;;;2.25;1.90;;;;;;;;;;4979666;28;20105;-81
2022/05/06 03:30:26;;;;;;;2.63;1.45;;;;;;;;;;4978315;28;20456;-82
2022/05/06 03:32:55;;;;;;;1.90;1.35;;;;;;;;;;4974622;28;25755;-81
2022/05/06 03:35:21;;;;;;;1.25;0.98;;;;;;;;;;4976545;28;20034;-81
2022/05/06 03:37:47;;;;;;;3.03;1.80;;;;;;;;;;4978933;28;20124;-81
2022/05/06 03:40:14;;;;;;;3.05;2.75;;;;;;;;;;4984016;28;20030;-82
2022/05/06 03:42:40;;;;;;;1.48;1.25;;;;;;;;;;4988948;28;20061;-82
2022/05/06 03:45:07;;;;;;;2.28;1.35;;;;;;;;;;4974797;28;20092;-81
2022/05/06 03:47:34;;;;;;;4.53;2.13;;;;;;;;;;4986855;28;20030;-82
2022/05/06 03:52:45;;;;;;;1.77;1.67;;;;;;;;;;4978725;28;20159;-82
2022/05/06 03:55:11;;;;;;;4.07;2.33;;;;;;;;;;4978248;28;20085;-81
2022/05/06 03:57:38;;;;;;;1.63;1.25;;;;;;;;;;4978978;28;20053;-81
2022/05/06 04:00:04;;;;;;;1.50;1.40;;;;;;;;;;4974760;28;20105;-82
2022/05/06 04:02:30;;;;;;;3.22;1.45;;;;;;;;;;4975417;28;20432;-81
2022/05/06 04:04:56;;;;;;;2.20;1.35;;;;;;;;;;4987637;28;20085;-82
2022/05/06 04:07:22;;;;;;;1.50;1.40;;;;;;;;;;4982783;28;20058;-82
2022/05/06 04:09:48;;;;;;;1.70;1.13;;;;;;;;;;4978178;28;20031;-81
2022/05/06 04:12:15;;;;;;;2.40;1.65;;;;;;;;;;4990537;28;20506;-82
2022/05/06 04:14:41;;;;;;;2.95;1.80;;;;;;;;;;4973691;28;20031;-81
2022/05/06 04:17:07;;;;;;;2.53;1.90;;;;;;;;;;4977395;28;20034;-81
2022/05/06 04:19:33;;;;;;;6.28;2.05;;;;;;;;;;4978018;28;20034;-82
2022/05/06 04:24:48;;;;;;;4.07;2.08;;;9.50;94.80;;;;;;4977969;28;20045;-81
2022/05/06 04:27:14;;;;;;;3.15;1.88;;;;;;;;;;4975295;28;20030;-81
2022/05/06 04:29:40;;;;;;;2.00;1.73;;;;;;;;;;4973863;28;20027;-81
2022/05/06 04:32:06;;;;;;;2.33;1.50;;;;;;;;;;4977859;28;20038;-81
2022/05/06 04:34:32;;;;;;;4.43;1.17;;;;;;;;;;4977698;28;20516;-81
2022/05/06 04:36:58;;;;;;;3.33;1.50;;;;;;;;;;4978200;28;20062;-82
2022/05/06 04:39:24;;;;;;;2.45;1.63;;;;;;;;;;4976943;28;20558;-82
2022/05/06 04:41:50;;;;;;;3.80;1.92;;;;;;;;;;4988679;28;20046;-81
2022/05/06 04:44:16;;;;;;;3.97;1.75;;;;;;;;;;4977162;28;20030;-81
2022/05/06 04:46:42;;;;;;;2.03;1.50;;;;;;;;;;4978361;28;20046;-81
2022/05/06 04:49:09;;;;;;;2.58;1.90;;;;;;;;;;4977860;28;20023;-81
2022/05/06 04:51:35;;;;;;;5.38;2.47;;;;;;;;;;4978278;28;20049;-81
2022/05/06 04:54:01;;;;;;;4.05;2.78;;;;;;;;;;4974331;28;20030;-82
2022/05/06 04:56:28;;;;;;;3.38;1.70;;;;;;;;;;4985861;28;20480;-82
2022/05/06 04:58:54;;;;;;;9.63;2.20;;;;;;;;;;4994102;28;20026;-81
2022/05/06 05:01:20;;;;;;;1.85;1.23;;;;;;;;;;4992801;28;20041;-81
2022/05/06 05:03:46;;;;;;;4.40;1.63;;;;;;;;;;4990128;28;20873;-82
2022/05/06 05:06:13;;;;;;;2.58;1.60;;;;;;;;;;4987778;28;20030;-81
2022/05/06 05:08:39;;;;;;;3.03;1.73;;;;;;;;;;4988272;28;20022;-81
2022/05/06 05:11:05;;;;;;;3.17;2.28;;;;;;;;;;4992172;28;20098;-81
2022/05/06 05:13:39;;;;;;;2.05;1.25;;;;;;;;;;4991352;28;20034;-81
2022/05/06 05:16:05;;;;;;;3.65;1.55;;;;;;;;;;4991495;28;20054;-82
2022/05/06 05:18:31;;;;;;;2.67;1.27;;;;;;;;;;4991061;28;20101;-82
2022/05/06 05:20:58;;;;;;;2.42;2.10;;;;;;;;;;4991078;28;20041;-81
2022/05/06 05:23:24;;;;;;;2.47;1.60;;;;;;;;;;4989008;28;20033;-81
2022/05/06 05:25:50;;;;;;;2.78;1.58;;;;;;;;;;4990084;28;20027;-82
2022/05/06 05:28:16;;;;;;;1.85;1.73;;;;;;;;;;4991067;28;20037;-82
2022/05/06 05:30:42;;;;;;;1.83;1.48;;;;;;;;;;4990112;28;20125;-81
2022/05/06 05:33:09;;;;;;;1.73;1.40;;;;;;;;;;4990242;28;20026;-82
2022/05/06 05:35:36;;;;;;;2.63;1.93;;;;;;;;;;4992430;28;20081;-81
2022/05/06 05:38:03;;;;;;;6.90;2.15;;;;;;;;;;4989551;28;20281;-82
2022/05/06 05:40:29;;;;;;;4.43;1.92;;;;;;;;;;4995862;28;20104;-81
2022/05/06 05:42:55;;;;;;;2.22;1.45;;;;;;;;;;4996920;28;20086;-81
2022/05/06 05:48:21;;;;;;;2.47;2.28;;;;;;;;;;4993441;28;20095;-82
2022/05/06 05:50:47;;;;;;;5.00;2.40;;;;;;;;;;4994159;28;20486;-82
2022/05/06 05:53:13;;;;;;;4.57;2.65;;;;;;;;;;4991291;28;20031;-79
2022/05/06 05:55:39;;;;;;;2.65;2.17;;;;;;;;;;4991270;28;20107;-81
2022/05/06 05:58:05;;;;;;;2.60;2.15;;;;;;;;;;4980297;28;20534;-81
2022/05/06 06:00:31;;;;;;;3.25;1.75;;;;;;;;;;4990828;28;20053;-81
2022/05/06 06:02:57;;;;;;;3.13;2.20;;;;;;;;;;4975524;28;20487;-82
2022/05/06 06:05:23;;;;;;;2.38;1.98;;;;;;;;;;4977718;28;20035;-81
2022/05/06 06:07:49;;;;;;;3.78;2.15;;;;;;;;;;4989410;28;20038;-80
2022/05/06 06:10:15;;;;;;;5.43;2.45;;;;;;;;;;4985811;28;20035;-81
2022/05/06 06:12:41;;;;;;;3.13;2.65;;;;;;;;;;4979298;28;20033;-82
2022/05/06 06:15:07;;;;;;;3.30;2.33;;;;;;;;;;4976074;28;20131;-81
2022/05/06 06:17:34;;;;;;;4.00;2.53;;;;;;;;;;4975479;28;20022;-82
2022/05/06 06:20:02;;;;;;;7.35;3.88;;;;;;;;;;4977801;28;20023;-82
2022/05/06 06:22:28;;;;;;;3.72;2.53;;;;;;;;;;4966501;28;20118;-78
2022/05/06 06:24:54;;;;;;;6.25;2.45;;;;;;;;;;4983146;28;20096;-79
2022/05/06 06:27:20;;;;;;;5.97;2.15;;;;;;;;;;4987613;28;20026;-78
2022/05/06 06:29:49;;;;;;;5.78;3.20;;;;;;;;;;4985966;28;20165;-80
2022/05/06 06:32:16;;;;;;;6.50;3.40;;;;;;;;;;4987018;28;20022;-80
2022/05/06 06:34:42;;;;;;;3.03;2.22;;;;;;;;;;4984116;28;20042;-78
2022/05/06 06:37:08;;;;;;;2.70;2.50;;;;;;;;;;4986055;28;20085;-79
2022/05/06 06:39:36;;;;;;;3.28;2.25;;;;;;;;;;4986789;28;20034;-79
2022/05/06 06:42:02;;;;;;;3.88;2.90;;;;;;;;;;4991447;28;20074;-78
2022/05/06 06:44:28;;;;;;;9.82;2.65;;;;;;;;;;4977408;28;20084;-81
2022/05/06 06:46:54;;;;;;;2.95;1.67;;;;;;;;;;4986693;28;20038;-81
2022/05/06 06:49:20;;;;;;;5.72;2.83;;;;;;;;;;4985528;28;20121;-81
2022/05/06 06:51:46;;;;;;;8.13;3.20;;;;;;;;;;4985452;28;20412;-80
2022/05/06 06:54:12;;;;;;;5.32;2.63;;;;;;;;;;4980249;28;20858;-81
2022/05/06 06:56:38;;;;;;;3.13;2.55;;;;;;;;;;4988181;28;20037;-81
2022/05/06 06:59:05;;;;;;;5.03;3.50;;;;;;;;;;4986335;28;20687;-81
2022/05/06 07:01:33;;;;;;;6.55;3.53;;;;;;;;;;4985849;28;20074;-81
2022/05/06 07:04:00;;;;;;;5.93;3.58;;;;;;;;;;4981087;28;20036;-80
2022/05/06 07:11:58;;;;;;;9.45;4.50;;;;;;;;;;4991623;28;20084;-78
2022/05/06 07:14:25;;;;;;;7.18;4.32;;;14.30;94.70;;;;;;4985416;28;20030;-79
2022/05/06 07:16:52;;;;;;;10.07;5.07;;;14.20;94.70;;;;;;4993426;28;20034;-79
2022/05/06 07:19:20;;;;;;;6.10;3.78;;;;;;;;;;4994448;28;20109;-79
2022/05/06 07:21:45;;;;;;;7.57;3.47;;;;;;;;;;4989683;28;20034;-79
2022/05/06 07:24:11;;;;;;;5.53;3.95;;;;;;;;;;4980371;28;20088;-79
2022/05/06 07:26:37;;;;;;;8.85;4.60;;;;;;;;;;4984208;28;20689;-80
2022/05/06 07:29:03;;;;;;;8.18;4.68;;;;;;;;;;4989099;28;20046;-80
2022/05/06 07:31:29;;;;;;;6.93;3.40;;;;;;;;;;4986791;28;20073;-79
2022/05/06 07:33:55;;;;;;;7.53;3.80;;;;;;;;;;4980533;28;20423;-80
2022/05/06 07:36:23;;;;;;;6.53;4.35;;;;;;;;;;4982873;28;20582;-79
2022/05/06 07:38:49;;;;;;;6.90;3.90;;;;;;;;;;4989278;28;20030;-80
2022/05/06 07:41:15;;;;;;;6.32;3.92;;;;;;;;;;4987034;28;20062;-79
2022/05/06 07:43:41;;;;;;;6.18;3.42;;;;;;;;;;4986399;28;20054;-80
2022/05/06 07:46:09;;;;;;;6.53;2.88;;;;;;;;;;4981242;28;20101;-80
2022/05/06 07:48:35;;;;;;;;;;;;;;;;;;4986620;28;20240;-78
2022/05/06 07:51:01;;;;;;;7.35;3.35;;;;;;;;;;4980581;28;19914;-78
2022/05/06 07:53:27;;;;;;;9.60;2.97;;;;;;;;;;4986534;28;20056;-79
2022/05/06 07:55:53;;;;;;;5.38;3.25;;;;;;;;;;4979770;28;20034;-79
2022/05/06 07:58:19;;;;;;;8.43;3.38;;;;;;;;;;4989728;28;20553;-79
2022/05/06 08:00:45;;;;;;;10.05;4.60;;;;;;;;;;4986540;28;20137;-80
2022/05/06 08:05:59;;;;;;;11.10;3.97;;;;;;;;;;4980609;28;20053;-84
2022/05/06 08:08:26;;;;;;;6.55;3.17;;;;;;;;;;4988637;28;20117;-80
2022/05/06 08:10:52;;;;;;;8.50;5.03;;;;;;;;;;4990460;28;20037;-80
2022/05/06 08:13:19;;;;;;;5.57;3.17;;;;;;;;;;4987580;28;20607;-81
2022/05/06 08:15:46;;;;;;;6.78;3.65;;;;;;;;;;4976819;28;20073;-81
2022/05/06 08:18:12;;;;;;;4.43;3.17;;;;;;;;;;4983902;28;20031;-81
2022/05/06 08:20:39;;;;;;;5.47;3.40;;;;;;;;;;4984055;28;20537;-78
2022/05/06 08:23:06;;;;;;;5.72;3.42;;;;;;;;;;4984465;28;20786;-78
2022/05/06 08:25:32;;;;;;;7.85;2.75;;;;;;;;;;4979095;28;20830;-78
2022/05/06 08:27:58;;;;;;;4.90;2.67;;;;;;;;;;4983774;28;20118;-79
2022/05/06 08:30:24;;;;;;;6.82;3.75;;;;;;;;;;4985537;28;20109;-79
2022/05/06 08:32:51;;;;;;;9.82;3.05;;;;;;;;;;4983794;28;20080;-79
2022/05/06 08:35:19;;;;;;;5.47;3.10;;;;;;;;;;4976872;28;20070;-80
2022/05/06 08:37:48;;;;;;;7.93;3.72;;;16.90;78.30;;;;;;4982570;28;20117;-80
2022/05/06 08:40:17;;;;;;;5.32;2.88;;;;;;;;;;4985119;28;20037;-80
2022/05/06 08:42:44;;;;;;;4.93;2.78;;;;;;;;;;4984305;28;20058;-77
2022/05/06 08:50:51;;;;;;;4.55;3.33;;;;;;;;;;4988793;28;20058;-79
2022/05/06 08:53:17;;;;;;;4.68;2.85;;;;;;;;;;4986299;28;20030;-79
2022/05/06 08:55:43;;;;;;;3.45;2.45;;;;;;;;;;4982363;28;20042;-79
2022/05/06 08:58:09;;;;;;;4.97;2.80;;;;;;;;;;4987951;28;20030;-79
2022/05/06 09:00:35;;;;;;;4.10;2.50;;;17.00;79.00;;;;;;4988221;28;20038;-79
2022/05/06 09:03:01;;;;;;;5.90;2.85;;;;;;;;;;4985936;28;20460;-78
2022/05/06 09:05:27;;;;;;;3.47;2.10;;;;;;;;;;4981109;28;20141;-79
2022/05/06 09:07:58;;;;;;;3.53;2.63;;;;;;;;;;4985889;28;20607;-79
2022/05/06 09:10:24;;;;;;;7.13;3.38;;;17.20;80.10;;;;;;4988796;28;20151;-79
2022/05/06 09:12:56;;;;;;;6.57;3.03;;;;;;;;;;4985598;28;20593;-80
2022/05/06 09:18:08;;;;;;;7.63;2.80;;;;;;;;;;4989022;28;20065;-81
2022/05/06 09:20:34;;;;;;;5.70;3.08;;;;;;;;;;4987102;28;20026;-81
2022/05/06 09:23:18;;;;;;;5.25;2.90;;;;;;;;;;4986654;28;20100;-80
2022/05/06 09:25:53;;;;;;;6.97;3.42;;;;;;;;;;4981175;28;20034;-77
2022/05/06 09:28:32;;;;;;;7.07;2.97;;;;;;;;;;4985940;28;20399;-77
2022/05/06 09:31:06;;;;;;;5.82;3.35;;;;;;;;;;4991268;28;20030;-77
2022/05/06 09:33:35;;;;;;;3.50;2.47;;;;;;;;;;4985836;28;20534;-78
2022/05/06 09:36:22;;;;;;;3.47;2.30;;;;;;;;;;4982669;28;20129;-78
2022/05/06 09:39:14;;;;;;;5.47;3.45;;;16.40;83.30;;;;;;4989306;28;20493;-78
2022/05/06 09:41:41;;;;;;;6.22;3.03;;;;;;;;;;4985881;28;20519;-78
2022/05/06 09:44:10;;;;;;;5.00;2.50;;;;;;;;;;4978676;28;20077;-79
2022/05/06 09:46:37;;;;;;;2.83;2.10;;;;;;;;;;4987563;28;20034;-78
2022/05/06 09:49:04;;;;;;;4.18;2.22;;;;;;;;;;4982441;28;20630;-77
2022/05/06 09:51:33;;;;;;;4.28;1.77;;;;;;;;;;4986130;28;20568;-77
2022/05/06 09:54:00;;;;;;;2.63;1.50;;;;;;;;;;4982443;28;20115;-79
2022/05/06 09:56:27;;;;;;;4.40;2.75;;;;;;;;;;4987067;28;20030;-81
2022/05/06 09:58:54;;;;;;;3.90;2.65;;;;;;;;;;4986760;28;20030;-81
2022/05/06 10:01:20;;;;;;;3.75;1.90;;;;;;;;;;4985183;28;20034;-80
2022/05/06 10:03:47;;;;;;;2.83;2.03;;;;;;;;;;4984179;28;20073;-81
2022/05/06 10:06:13;;;;;;;5.35;2.47;;;;;;;;;;4982004;28;20038;-81
2022/05/06 10:08:42;;;;;;;3.65;2.00;;;;;;;;;;4986946;28;20026;-80
2022/05/06 10:11:14;;;;;;;5.00;2.17;;;;;;;;;;4989137;28;20057;-80
2022/05/06 10:13:45;;;;;;;4.45;1.73;;;;;;;;;;4983143;28;20572;-81
2022/05/06 10:16:11;;;;;;;5.28;2.78;;;16.40;88.10;;;;;;4982130;28;20038;-81
2022/05/06 10:18:46;;;;;;;3.65;1.85;;;16.50;85.10;;;;;;4984684;28;20034;-81
2022/05/06 10:21:12;;;;;;;2.85;2.00;;;;;;;;;;4985804;28;20036;-81
2022/05/06 10:23:48;;;;;;;3.20;1.90;;;;;;;;;;4986263;28;20026;-80
2022/05/06 10:26:32;;;;;;;2.92;1.50;;;;;;;;;;4984302;28;20484;-80
2022/05/06 10:34:29;;;;;;;14.70;3.28;;;;;;;;;;4981433;28;20450;-79
2022/05/06 10:36:55;;;;;;;2.63;1.52;;;;;;;;;;4984914;28;20117;-80
2022/05/06 10:39:22;;;;;;;5.20;1.87;;;;;;;;;;4987279;28;20018;-80
2022/05/06 10:42:04;;;;;;;3.37;2.40;;;;;;;;;;4986544;28;20042;-80
2022/05/06 10:44:40;;;;;;;2.50;1.17;;;;;;;;;;4978720;28;20035;-79
2022/05/06 10:47:11;;;;;;;2.00;1.73;;;16.40;84.60;;;;;;5002556;28;20030;-80
2022/05/06 10:49:42;;;;;;;2.15;1.60;;;;;;;;;;4986816;28;20034;-79
2022/05/06 10:52:15;;;;;;;1.42;0.80;;;;;;;;;;4986340;28;20511;-80
2022/05/06 10:54:41;;;;;;;2.97;1.85;;;;;;;;;;4978951;28;20030;-80
2022/05/06 10:57:08;;;;;;;2.65;1.70;;;;;;;;;;4986170;28;20148;-80
2022/05/06 10:59:49;;;;;;;3.88;2.22;;;;;;;;;;4986513;28;20030;-79
2022/05/06 11:02:16;;;;;;;2.75;1.45;;;;;;;;;;4986371;28;20038;-80
2022/05/06 11:04:42;;;;;;;2.80;1.40;;;;;;;;;;4979647;28;20488;-80
2022/05/06 11:07:14;;;;;;;1.52;1.15;;;;;;;;;;4984427;28;20034;-80
2022/05/06 11:09:40;;;;;;;2.85;1.58;;;;;;;;;;4986590;28;20022;-81
2022/05/06 11:12:06;;;;;;;2.63;1.88;;;;;;;;;;4985373;28;20041;-80
2022/05/06 11:14:33;;;;;;;3.88;2.03;;;;;;;;;;4980715;28;20041;-81
2022/05/06 11:17:25;;;;;;;1.60;1.40;;;;;;;;;;4984657;28;20053;-80
2022/05/06 11:19:51;;;;;;;2.08;1.55;;;17.00;83.70;;;;;;4981882;28;20292;-80
2022/05/06 11:22:18;;;;;;;3.40;1.70;;;;;;;;;;4985328;28;20408;-80
2022/05/06 11:24:44;;;;;;;3.03;2.20;;;;;;;;;;4977963;28;20902;-81
2022/05/06 11:27:17;;;;;;;4.88;1.58;;;;;;;;;;4985846;28;20575;-80
2022/05/06 11:30:01;;;;;;;3.22;1.85;;;;;;;;;;4986342;28;20480;-80
2022/05/06 11:32:28;;;;;;;2.03;1.30;;;16.50;84.10;;;;;;4984362;28;20492;-80
2022/05/06 11:35:15;;;;;;;3.50;2.58;;;;;;;;;;4980026;28;20038;-80
2022/05/06 11:37:42;;;;;;;4.28;1.92;;;;;;;;;;4986202;28;20038;-80
2022/05/06 11:42:50;;;;;;;1.50;1.35;;;;;;;;;;4986495;28;20046;-78
2022/05/06 11:48:05;;;;;;;2.97;1.90;;;;;;;;;;4982468;28;20121;-81
2022/05/06 11:50:32;;;;;;;2.15;1.40;;;;;;;;;;4986218;28;20435;-80
2022/05/06 11:52:59;;;;;;;2.63;1.98;;;16.50;83.40;;;;;;4987353;28;20116;-81
2022/05/06 11:55:26;;;;;;;2.73;1.63;;;;;;;;;;4977610;28;20416;-80
2022/05/06 11:57:53;;;;;;;2.75;1.70;;;;;;;;;;4985566;28;20269;-81
2022/05/06 12:00:19;;;;;;;2.00;1.48;;;;;;;;;;4986594;28;20078;-80
2022/05/06 12:02:49;;;;;;;6.57;2.03;;;;;;;;;;4984406;28;20042;-81
2022/05/06 12:05:15;;;;;;;3.42;2.22;;;;;;;;;;4978055;28;20022;-80
2022/05/06 12:07:42;;;;;;;3.15;1.92;;;;;;;;;;4983435;28;20058;-80
2022/05/06 12:10:09;;;;;;;2.50;1.42;;;;;;;;;;4985725;28;20034;-80
2022/05/06 12:12:51;;;;;;;7.47;1.75;;;;;;;;;;4983868;28;20839;-81
2022/05/06 12:15:17;;;;;;;2.03;1.35;;;;;;;;;;4978296;28;20456;-80
2022/05/06 12:17:43;;;;;;;2.20;1.70;;;;;;;;;;4985435;28;20026;-81
2022/05/06 12:20:31;;;;;;;4.13;2.20;;;17.50;81.40;;;;;;4990502;28;20731;-79
2022/05/06 12:22:58;;;;;;;3.60;2.42;;;;;;;;;;4980962;28;20066;-80
2022/05/06 12:25:24;;;;;;;2.90;2.22;;;;;;;;;;4977996;28;20057;-80
2022/05/06 12:28:03;;;;;;;2.10;1.58;;;;;;;;;;4985987;28;20751;-81
2022/05/06 12:30:30;;;;;;;7.22;2.65;;;17.40;81.50;;;;;;4985914;28;20014;-79
2022/05/06 12:33:06;;;;;;;3.08;1.92;;;;;;;;;;4985029;28;20399;-81
2022/05/06 12:35:32;;;;;;;3.88;2.22;;;;;;;;;;4979689;28;20527;-80
2022/05/06 12:38:00;;;;;;;1.85;1.63;;;17.40;82.10;;;;;;4987120;28;20231;-81
2022/05/06 12:40:34;;;;;;;3.45;2.08;;;17.30;80.60;;;;;;4984133;28;20592;-78
2022/05/06 12:43:07;;;;;;;3.75;2.15;;;;;;;;;;4987382;28;20471;-78
2022/05/06 12:45:33;;;;;;;9.77;1.48;;;;;;;;;;4977909;28;20117;-79
2022/05/06 12:50:44;;;;;;;4.68;2.40;;;;;;;;;;4986909;28;20045;-79
2022/05/06 12:53:10;;;;;;;2.88;1.92;;;;;;;;;;4986772;28;20030;-79
2022/05/06 12:55:37;;;;;;;5.17;2.20;;;;;;;;;;4970833;28;20030;-79
2022/05/06 12:58:03;;;;;;;2.58;1.58;;;;;;;;;;4981466;28;20971;-80
2022/05/06 13:00:29;;;;;;;3.55;2.10;;;;;;;;;;4984393;28;20038;-78
2022/05/06 13:02:56;;;;;;;2.97;2.20;;;;;;;;;;4985839;28;20047;-80
2022/05/06 13:05:22;;;;;;;3.40;1.95;;;;;;;;;;4978042;28;20524;-80
2022/05/06 13:07:48;;;;;;;5.35;2.58;;;;;;;;;;4984118;28;20035;-81
2022/05/06 13:10:14;;;;;;;5.10;2.13;;;;;;;;;;4984060;28;20402;-80
2022/05/06 13:12:40;;;;;;;2.25;2.05;;;;;;;;;;4989444;28;20030;-81
2022/05/06 13:15:06;;;;;;;2.80;1.95;;;;;;;;;;4980127;28;20022;-80
2022/05/06 13:17:33;;;;;;;4.78;2.30;;;;;;;;;;4985060;28;20573;-81
2022/05/06 13:19:59;;;;;;;3.40;2.47;;;;;;;;;;4983492;28;20134;-81
2022/05/06 13:22:25;;;;;;;4.82;2.40;;;;;;;;;;4984988;28;20137;-80
2022/05/06 13:24:51;;;;;;;5.32;2.47;;;;;;;;;;4980193;28;20466;-80
2022/05/06 13:27:17;;;;;;;3.30;2.22;;;;;;;;;;4987735;28;20557;-79
2022/05/06 13:29:43;;;;;;;4.07;2.08;;;;;;;;;;4989740;28;20038;-79
2022/05/06 13:32:09;;;;;;;3.42;2.63;;;;;;;;;;4988341;28;20026;-81
2022/05/06 13:34:35;;;;;;;5.07;2.30;;;;;;;;;;4983057;28;20040;-79
2022/05/06 13:37:03;;;;;;;3.53;2.35;;;;;;;;;;4989269;28;20558;-79
2022/05/06 13:39:29;;;;;;;;;;;;;;;;;;4989409;28;20483;-81
2022/05/06 13:41:55;;;;;;;2.90;1.95;;;;;;;;;;4987604;28;19924;-82
2022/05/06 13:44:21;;;;;;;3.17;1.63;;;;;;;;;;4989259;28;20026;-82
2022/05/06 13:46:48;;;;;;;6.25;2.40;;;;;;;;;;4989555;28;20029;-82
2022/05/06 13:49:14;;;;;;;3.20;1.77;;;;;;;;;;4994663;28;20101;-82
2022/05/06 13:51:40;;;;;;;2.88;2.20;;;;;;;;;;4990558;28;20022;-82
2022/05/06 13:54:06;;;;;;;2.75;1.85;;;;;;;;;;4987542;28;20026;-82
2022/05/06 13:59:17;;;;;;;3.97;2.30;;;;;;;;;;4989796;28;20482;-82
2022/05/06 14:01:44;;;;;;;3.95;2.03;;;;;;;;;;4987048;28;20042;-82
2022/05/06 14:04:11;;;;;;;4.97;2.85;;;;;;;;;;4984517;28;20556;-84
2022/05/06 14:06:37;;;;;;;3.28;2.42;;;;;;;;;;4987175;28;20562;-82
2022/05/06 14:09:03;;;;;;;3.28;2.22;;;;;;;;;;4989181;28;20531;-81
2022/05/06 14:11:30;;;;;;;6.15;3.47;;;;;;;;;;4988151;28;20030;-82
2022/05/06 14:13:57;;;;;;;4.70;2.03;;;;;;;;;;4986941;28;20113;-80
2022/05/06 14:16:26;;;;;;;5.83;2.07;;;;;;;;;;4983983;28;20543;-79
2022/05/06 14:18:56;;;;;;;3.72;2.30;;;;;;;;;;4987942;28;20269;-79
2022/05/06 14:21:23;;;;;;;2.95;1.77;;;;;;;;;;4986670;28;20077;-80
2022/05/06 14:23:49;;;;;;;3.47;1.75;;;;;;;;;;4988358;28;20062;-80
2022/05/06 14:26:15;;;;;;;4.55;3.03;;;;;;;;;;4986683;28;20085;-80
2022/05/06 14:28:41;;;;;;;6.07;2.42;;;;;;;;;;4990762;28;20034;-80
2022/05/06 14:31:07;;;;;;;5.15;1.60;;;;;;;;;;4990822;28;20412;-80
2022/05/06 14:33:33;;;;;;;2.92;1.92;;;;;;;;;;4990148;28;20053;-81
2022/05/06 14:35:59;;;;;;;3.35;2.20;;;;;;;;;;4981914;28;20796;-80
2022/05/06 14:38:25;;;;;;;7.68;3.38;;;;;;;;;;4984464;28;20579;-80
2022/05/06 14:40:51;;;;;;;6.30;2.95;;;;;;;;;;4988146;28;20062;-80
2022/05/06 14:43:17;;;;;;;5.45;2.92;;;;;;;;;;4983366;28;20050;-79
2022/05/06 14:45:43;;;;;;;4.75;2.85;;;;;;;;;;4981541;28;20046;-80
2022/05/06 14:48:09;;;;;;;7.20;2.03;;;;;;;;;;4984402;28;20073;-79
2022/05/06 14:50:35;;;;;;;16.23;2.83;;;;;;;;;;4985910;28;20098;-80
2022/05/06 14:53:01;;;;;;;8.93;2.08;;;;;;;;;;4986557;28;20034;-79
2022/05/06 14:55:27;;;;;;;4.05;2.55;;;;;;;;;;4981337;28;20030;-79
2022/05/06 14:57:54;;;;;;;7.60;2.53;;;;;;;;;;4989383;28;20034;-79
2022/05/06 15:00:20;;;;;;;7.07;2.30;;;;;;;;;;4986404;28;20518;-80
2022/05/06 15:02:46;;;;;;;3.47;2.53;;;;;;;;;;4983988;28;20117;-79
2022/05/06 15:05:12;;;;;;;3.65;2.72;;;;;;;;;;4983710;28;20113;-80
2022/05/06 15:07:38;;;;;;;4.18;2.78;;;;;;;;;;4981484;28;20034;-80
2022/05/06 15:10:05;;;;;;;5.50;2.63;;;17.70;81.60;;;;;;4984712;28;20499;-80
2022/05/06 15:12:31;;;;;;;3.50;2.67;;;;;;;;;;4984910;28;20482;-81
2022/05/06 15:14:57;;;;;;;3.85;2.45;;;;;;;;;;4982956;28;20806;-81
2022/05/06 15:17:23;;;;;;;3.58;2.72;;;;;;;;;;4989760;28;20055;-81
2022/05/06 15:19:49;;;;;;;3.15;1.85;;;;;;;;;;4983834;28;20034;-80
2022/05/06 15:22:17;;;;;;;3.30;2.50;;;;;;;;;;4984165;28;20088;-80
2022/05/06 15:24:43;;;;;;;3.40;2.55;;;;;;;;;;4980896;28;20484;-81